Main page
METAR-TAF:

METAR-TAF

Airports :

Penn Valley Airport

Selinsgrove, Pennsylvania, United States

latitude: 40-49-09N, longitude: 076-51-58W, elevation: 449 ft

Current weather observation

The report was made 40 minutes ago, at 17:53 UTC
Wind 8 mph from the South/Southeast
Temperature 55°F
Humidity 30%
Pressure 29.99 in. Hg
Visibility: 10 miles
Overcast at a height of 8500 ft

METAR: KSEG 241753Z AUTO 16007KT 10SM OVC085 13/M04 A2999 RMK AO2 SLP158 T01281044 10128 21044 58019

Time: 13:33 (18:33 UTC)


TAF: missing

Weather observations and forecasts of more than 4000 airports (METAR and TAF reports).

The available stations are represented by yellow and red dots on the map.

Hover mouse over dot to see the name of the station.

Then click to see weather observations and forecasts.

To change the map : click on the green buttons with a black cross to zoom in, on the green button with a dash to zoom out, or on the green arrows for adjacent maps.


METAR-TAF: